sensor_id;sensor_type;location;lat;lon;timestamp;P1;durP1;ratioP1;P2;durP2;ratioP2
8632;SDS011;4354;49.832;10.746;2023-10-19T00:00:41;38.63;;;28.67;;
8632;SDS011;4354;49.832;10.746;2023-10-19T00:03:12;38.67;;;29.23;;
8632;SDS011;4354;49.832;10.746;2023-10-19T00:05:39;41.17;;;29.30;;
8632;SDS011;4354;49.832;10.746;2023-10-19T00:08:08;40.43;;;28.87;;
8632;SDS011;4354;49.832;10.746;2023-10-19T00:10:49;35.20;;;26.90;;
8632;SDS011;4354;49.832;10.746;2023-10-19T00:13:29;38.13;;;28.53;;
8632;SDS011;4354;49.832;10.746;2023-10-19T00:15:56;38.50;;;29.00;;
8632;SDS011;4354;49.832;10.746;2023-10-19T00:18:26;33.33;;;27.47;;
8632;SDS011;4354;49.832;10.746;2023-10-19T00:20:54;36.73;;;28.70;;
8632;SDS011;4354;49.832;10.746;2023-10-19T00:23:39;37.73;;;30.07;;
8632;SDS011;4354;49.832;10.746;2023-10-19T00:26:07;35.63;;;29.50;;
8632;SDS011;4354;49.832;10.746;2023-10-19T00:28:35;34.37;;;28.70;;
8632;SDS011;4354;49.832;10.746;2023-10-19T00:31:04;38.77;;;29.80;;
8632;SDS011;4354;49.832;10.746;2023-10-19T00:33:37;38.53;;;30.07;;
8632;SDS011;4354;49.832;10.746;2023-10-19T00:36:06;38.67;;;30.03;;
8632;SDS011;4354;49.832;10.746;2023-10-19T00:38:34;35.47;;;27.97;;
8632;SDS011;4354;49.832;10.746;2023-10-19T00:41:02;35.97;;;28.97;;
8632;SDS011;4354;49.832;10.746;2023-10-19T00:43:33;37.50;;;29.67;;
8632;SDS011;4354;49.832;10.746;2023-10-19T00:46:03;37.70;;;29.67;;
8632;SDS011;4354;49.832;10.746;2023-10-19T00:48:36;37.60;;;30.17;;
8632;SDS011;4354;49.832;10.746;2023-10-19T00:51:12;40.67;;;29.90;;
8632;SDS011;4354;49.832;10.746;2023-10-19T00:53:58;38.97;;;31.13;;
8632;SDS011;4354;49.832;10.746;2023-10-19T00:56:32;38.30;;;30.57;;
8632;SDS011;4354;49.832;10.746;2023-10-19T00:58:59;37.23;;;29.10;;
8632;SDS011;4354;49.832;10.746;2023-10-19T01:01:28;40.00;;;31.37;;
8632;SDS011;4354;49.832;10.746;2023-10-19T01:03:56;42.77;;;31.50;;
8632;SDS011;4354;49.832;10.746;2023-10-19T01:06:24;39.10;;;29.87;;
8632;SDS011;4354;49.832;10.746;2023-10-19T01:08:52;37.77;;;29.53;;
8632;SDS011;4354;49.832;10.746;2023-10-19T01:11:19;43.07;;;32.13;;
8632;SDS011;4354;49.832;10.746;2023-10-19T01:13:47;37.63;;;28.97;;
8632;SDS011;4354;49.832;10.746;2023-10-19T01:16:17;40.63;;;31.73;;
8632;SDS011;4354;49.832;10.746;2023-10-19T01:18:50;40.70;;;30.40;;
8632;SDS011;4354;49.832;10.746;2023-10-19T01:21:22;36.60;;;29.77;;
8632;SDS011;4354;49.832;10.746;2023-10-19T01:24:07;40.97;;;31.63;;
8632;SDS011;4354;49.832;10.746;2023-10-19T01:26:35;37.13;;;29.93;;
8632;SDS011;4354;49.832;10.746;2023-10-19T01:29:04;36.77;;;30.30;;
8632;SDS011;4354;49.832;10.746;2023-10-19T01:31:43;41.20;;;30.70;;
8632;SDS011;4354;49.832;10.746;2023-10-19T01:34:29;44.50;;;32.23;;
8632;SDS011;4354;49.832;10.746;2023-10-19T01:36:57;38.77;;;31.07;;
8632;SDS011;4354;49.832;10.746;2023-10-19T01:39:34;40.03;;;30.53;;
8632;SDS011;4354;49.832;10.746;2023-10-19T01:42:05;40.70;;;32.47;;
8632;SDS011;4354;49.832;10.746;2023-10-19T01:44:33;40.37;;;32.80;;
8632;SDS011;4354;49.832;10.746;2023-10-19T01:47:02;44.77;;;32.87;;
8632;SDS011;4354;49.832;10.746;2023-10-19T01:49:34;39.50;;;31.07;;
8632;SDS011;4354;49.832;10.746;2023-10-19T01:52:02;40.13;;;31.53;;
8632;SDS011;4354;49.832;10.746;2023-10-19T01:54:30;40.07;;;31.87;;
8632;SDS011;4354;49.832;10.746;2023-10-19T01:56:57;40.83;;;32.73;;
8632;SDS011;4354;49.832;10.746;2023-10-19T01:59:24;39.70;;;31.57;;
8632;SDS011;4354;49.832;10.746;2023-10-19T02:01:54;42.30;;;33.17;;
8632;SDS011;4354;49.832;10.746;2023-10-19T02:04:23;40.13;;;32.63;;
8632;SDS011;4354;49.832;10.746;2023-10-19T02:06:52;41.23;;;33.70;;
8632;SDS011;4354;49.832;10.746;2023-10-19T02:09:22;39.17;;;32.47;;
8632;SDS011;4354;49.832;10.746;2023-10-19T02:11:53;43.97;;;33.07;;
8632;SDS011;4354;49.832;10.746;2023-10-19T02:14:26;40.87;;;32.70;;
8632;SDS011;4354;49.832;10.746;2023-10-19T02:16:58;39.73;;;32.90;;
8632;SDS011;4354;49.832;10.746;2023-10-19T02:19:27;43.83;;;34.67;;
8632;SDS011;4354;49.832;10.746;2023-10-19T02:21:56;45.73;;;34.77;;
8632;SDS011;4354;49.832;10.746;2023-10-19T02:24:24;48.70;;;35.97;;
8632;SDS011;4354;49.832;10.746;2023-10-19T02:26:53;47.70;;;35.17;;
8632;SDS011;4354;49.832;10.746;2023-10-19T02:29:24;42.20;;;33.73;;
8632;SDS011;4354;49.832;10.746;2023-10-19T02:31:57;40.13;;;32.27;;
8632;SDS011;4354;49.832;10.746;2023-10-19T02:34:30;49.03;;;35.87;;
8632;SDS011;4354;49.832;10.746;2023-10-19T02:36:57;45.70;;;35.83;;
8632;SDS011;4354;49.832;10.746;2023-10-19T02:39:24;38.63;;;32.30;;
8632;SDS011;4354;49.832;10.746;2023-10-19T02:41:54;50.00;;;37.70;;
8632;SDS011;4354;49.832;10.746;2023-10-19T02:44:22;46.53;;;36.43;;
8632;SDS011;4354;49.832;10.746;2023-10-19T02:46:50;47.07;;;36.83;;
8632;SDS011;4354;49.832;10.746;2023-10-19T02:49:24;49.00;;;36.73;;
8632;SDS011;4354;49.832;10.746;2023-10-19T02:51:53;46.97;;;36.20;;
8632;SDS011;4354;49.832;10.746;2023-10-19T02:54:20;53.57;;;37.87;;
8632;SDS011;4354;49.832;10.746;2023-10-19T02:56:50;45.97;;;36.67;;
8632;SDS011;4354;49.832;10.746;2023-10-19T02:59:19;48.97;;;37.30;;
8632;SDS011;4354;49.832;10.746;2023-10-19T03:01:50;48.10;;;37.27;;
8632;SDS011;4354;49.832;10.746;2023-10-19T03:04:18;51.80;;;39.73;;
8632;SDS011;4354;49.832;10.746;2023-10-19T03:06:47;51.17;;;39.63;;
8632;SDS011;4354;49.832;10.746;2023-10-19T03:09:15;53.63;;;39.43;;
8632;SDS011;4354;49.832;10.746;2023-10-19T03:11:50;49.33;;;38.27;;
8632;SDS011;4354;49.832;10.746;2023-10-19T03:14:21;47.47;;;37.67;;
8632;SDS011;4354;49.832;10.746;2023-10-19T03:16:55;46.77;;;39.83;;
8632;SDS011;4354;49.832;10.746;2023-10-19T03:19:22;48.67;;;37.27;;
8632;SDS011;4354;49.832;10.746;2023-10-19T03:21:51;48.57;;;39.57;;
8632;SDS011;4354;49.832;10.746;2023-10-19T03:24:18;48.87;;;39.50;;
8632;SDS011;4354;49.832;10.746;2023-10-19T03:27:04;45.40;;;37.50;;
8632;SDS011;4354;49.832;10.746;2023-10-19T03:29:44;48.33;;;38.57;;
8632;SDS011;4354;49.832;10.746;2023-10-19T03:32:20;51.20;;;38.87;;
8632;SDS011;4354;49.832;10.746;2023-10-19T03:34:53;47.87;;;36.93;;
8632;SDS011;4354;49.832;10.746;2023-10-19T03:37:25;49.57;;;36.83;;
8632;SDS011;4354;49.832;10.746;2023-10-19T03:39:56;46.20;;;37.13;;
8632;SDS011;4354;49.832;10.746;2023-10-19T03:42:23;44.23;;;36.93;;
8632;SDS011;4354;49.832;10.746;2023-10-19T03:44:52;50.50;;;39.60;;
8632;SDS011;4354;49.832;10.746;2023-10-19T03:47:24;50.40;;;40.30;;
8632;SDS011;4354;49.832;10.746;2023-10-19T03:50:01;47.90;;;38.87;;
8632;SDS011;4354;49.832;10.746;2023-10-19T03:52:40;47.67;;;38.63;;
8632;SDS011;4354;49.832;10.746;2023-10-19T03:55:07;51.17;;;38.60;;
8632;SDS011;4354;49.832;10.746;2023-10-19T03:57:49;48.33;;;38.97;;
8632;SDS011;4354;49.832;10.746;2023-10-19T04:00:19;49.90;;;38.97;;
8632;SDS011;4354;49.832;10.746;2023-10-19T04:02:57;54.27;;;41.30;;
8632;SDS011;4354;49.832;10.746;2023-10-19T04:05:25;52.13;;;40.40;;
8632;SDS011;4354;49.832;10.746;2023-10-19T04:07:55;51.07;;;40.40;;
8632;SDS011;4354;49.832;10.746;2023-10-19T04:10:24;54.30;;;40.67;;
8632;SDS011;4354;49.832;10.746;2023-10-19T04:13:01;51.80;;;41.80;;
8632;SDS011;4354;49.832;10.746;2023-10-19T04:15:29;53.57;;;41.57;;
8632;SDS011;4354;49.832;10.746;2023-10-19T04:18:01;53.37;;;40.77;;
8632;SDS011;4354;49.832;10.746;2023-10-19T04:20:36;57.90;;;42.53;;
8632;SDS011;4354;49.832;10.746;2023-10-19T04:23:21;52.33;;;41.63;;
8632;SDS011;4354;49.832;10.746;2023-10-19T04:25:55;51.43;;;41.37;;
8632;SDS011;4354;49.832;10.746;2023-10-19T04:28:32;55.93;;;41.97;;
8632;SDS011;4354;49.832;10.746;2023-10-19T04:31:05;52.90;;;41.07;;
8632;SDS011;4354;49.832;10.746;2023-10-19T04:33:33;50.43;;;42.57;;
8632;SDS011;4354;49.832;10.746;2023-10-19T04:36:03;53.73;;;42.50;;
8632;SDS011;4354;49.832;10.746;2023-10-19T04:38:31;56.23;;;42.97;;
8632;SDS011;4354;49.832;10.746;2023-10-19T04:41:08;54.70;;;40.83;;
8632;SDS011;4354;49.832;10.746;2023-10-19T04:43:37;55.77;;;41.53;;
8632;SDS011;4354;49.832;10.746;2023-10-19T04:46:09;55.53;;;43.03;;
8632;SDS011;4354;49.832;10.746;2023-10-19T04:48:39;55.80;;;42.03;;
8632;SDS011;4354;49.832;10.746;2023-10-19T04:51:06;52.23;;;40.70;;
8632;SDS011;4354;49.832;10.746;2023-10-19T04:53:35;51.83;;;41.47;;
8632;SDS011;4354;49.832;10.746;2023-10-19T04:56:06;50.87;;;41.47;;
8632;SDS011;4354;49.832;10.746;2023-10-19T04:58:38;54.50;;;42.47;;
8632;SDS011;4354;49.832;10.746;2023-10-19T05:01:06;54.67;;;42.10;;
8632;SDS011;4354;49.832;10.746;2023-10-19T05:03:32;53.83;;;42.57;;
8632;SDS011;4354;49.832;10.746;2023-10-19T05:06:01;54.70;;;42.27;;
8632;SDS011;4354;49.832;10.746;2023-10-19T05:08:27;54.33;;;41.43;;
8632;SDS011;4354;49.832;10.746;2023-10-19T05:10:55;52.37;;;41.63;;
8632;SDS011;4354;49.832;10.746;2023-10-19T05:13:23;58.47;;;44.20;;
8632;SDS011;4354;49.832;10.746;2023-10-19T05:15:52;53.57;;;43.37;;
8632;SDS011;4354;49.832;10.746;2023-10-19T05:18:21;54.03;;;40.97;;
8632;SDS011;4354;49.832;10.746;2023-10-19T05:20:48;52.90;;;42.00;;
8632;SDS011;4354;49.832;10.746;2023-10-19T05:23:17;51.97;;;41.73;;
8632;SDS011;4354;49.832;10.746;2023-10-19T05:25:46;54.03;;;40.77;;
8632;SDS011;4354;49.832;10.746;2023-10-19T05:28:13;54.57;;;42.33;;
8632;SDS011;4354;49.832;10.746;2023-10-19T05:30:40;51.73;;;41.30;;
8632;SDS011;4354;49.832;10.746;2023-10-19T05:33:07;56.70;;;42.37;;
8632;SDS011;4354;49.832;10.746;2023-10-19T05:35:34;49.63;;;39.70;;
8632;SDS011;4354;49.832;10.746;2023-10-19T05:38:07;50.73;;;41.10;;
8632;SDS011;4354;49.832;10.746;2023-10-19T05:40:34;53.07;;;42.47;;
8632;SDS011;4354;49.832;10.746;2023-10-19T05:43:02;54.40;;;42.73;;
8632;SDS011;4354;49.832;10.746;2023-10-19T05:45:29;56.13;;;41.07;;
8632;SDS011;4354;49.832;10.746;2023-10-19T05:47:56;56.80;;;43.17;;
8632;SDS011;4354;49.832;10.746;2023-10-19T05:50:26;53.37;;;41.00;;
8632;SDS011;4354;49.832;10.746;2023-10-19T05:52:54;53.17;;;42.20;;
8632;SDS011;4354;49.832;10.746;2023-10-19T05:55:22;51.43;;;40.63;;
8632;SDS011;4354;49.832;10.746;2023-10-19T05:57:49;52.83;;;43.50;;
8632;SDS011;4354;49.832;10.746;2023-10-19T06:00:16;53.07;;;42.83;;
8632;SDS011;4354;49.832;10.746;2023-10-19T06:02:47;52.27;;;42.43;;
8632;SDS011;4354;49.832;10.746;2023-10-19T06:05:18;54.93;;;43.33;;
8632;SDS011;4354;49.832;10.746;2023-10-19T06:07:46;57.13;;;43.77;;
8632;SDS011;4354;49.832;10.746;2023-10-19T06:10:14;53.20;;;42.30;;
8632;SDS011;4354;49.832;10.746;2023-10-19T06:12:47;53.37;;;42.10;;
8632;SDS011;4354;49.832;10.746;2023-10-19T06:15:17;57.67;;;43.93;;
8632;SDS011;4354;49.832;10.746;2023-10-19T06:17:47;52.67;;;40.77;;
8632;SDS011;4354;49.832;10.746;2023-10-19T06:20:18;59.93;;;43.70;;
8632;SDS011;4354;49.832;10.746;2023-10-19T06:22:54;58.33;;;43.87;;
8632;SDS011;4354;49.832;10.746;2023-10-19T06:25:24;58.40;;;43.37;;
8632;SDS011;4354;49.832;10.746;2023-10-19T06:27:51;55.47;;;42.53;;
8632;SDS011;4354;49.832;10.746;2023-10-19T06:30:19;52.87;;;41.80;;
8632;SDS011;4354;49.832;10.746;2023-10-19T06:32:55;57.10;;;44.73;;
8632;SDS011;4354;49.832;10.746;2023-10-19T06:35:28;54.03;;;43.67;;
8632;SDS011;4354;49.832;10.746;2023-10-19T06:37:58;57.10;;;43.10;;
8632;SDS011;4354;49.832;10.746;2023-10-19T06:40:25;60.20;;;45.73;;
8632;SDS011;4354;49.832;10.746;2023-10-19T06:42:56;62.40;;;46.47;;
8632;SDS011;4354;49.832;10.746;2023-10-19T06:45:24;60.60;;;45.97;;
8632;SDS011;4354;49.832;10.746;2023-10-19T06:47:51;57.23;;;44.70;;
8632;SDS011;4354;49.832;10.746;2023-10-19T06:50:20;61.73;;;46.10;;
8632;SDS011;4354;49.832;10.746;2023-10-19T06:52:48;57.97;;;45.73;;
8632;SDS011;4354;49.832;10.746;2023-10-19T06:55:16;62.10;;;46.60;;
8632;SDS011;4354;49.832;10.746;2023-10-19T06:57:53;60.57;;;46.40;;
8632;SDS011;4354;49.832;10.746;2023-10-19T07:00:22;59.27;;;47.13;;
8632;SDS011;4354;49.832;10.746;2023-10-19T07:02:54;56.60;;;43.87;;
8632;SDS011;4354;49.832;10.746;2023-10-19T07:05:22;57.53;;;43.37;;
8632;SDS011;4354;49.832;10.746;2023-10-19T07:07:56;58.67;;;46.00;;
8632;SDS011;4354;49.832;10.746;2023-10-19T07:10:26;56.80;;;45.33;;
8632;SDS011;4354;49.832;10.746;2023-10-19T07:12:56;55.63;;;46.07;;
8632;SDS011;4354;49.832;10.746;2023-10-19T07:15:24;59.83;;;46.30;;
8632;SDS011;4354;49.832;10.746;2023-10-19T07:17:56;56.40;;;44.33;;
8632;SDS011;4354;49.832;10.746;2023-10-19T07:20:24;56.30;;;45.60;;
8632;SDS011;4354;49.832;10.746;2023-10-19T07:23:02;63.37;;;46.20;;
8632;SDS011;4354;49.832;10.746;2023-10-19T07:25:36;54.43;;;46.00;;
8632;SDS011;4354;49.832;10.746;2023-10-19T07:28:17;55.97;;;44.20;;
8632;SDS011;4354;49.832;10.746;2023-10-19T07:30:44;52.17;;;42.73;;
8632;SDS011;4354;49.832;10.746;2023-10-19T07:33:12;57.30;;;44.33;;
8632;SDS011;4354;49.832;10.746;2023-10-19T07:35:44;49.13;;;41.17;;
8632;SDS011;4354;49.832;10.746;2023-10-19T07:38:15;43.03;;;38.33;;
8632;SDS011;4354;49.832;10.746;2023-10-19T07:40:48;38.80;;;34.07;;
8632;SDS011;4354;49.832;10.746;2023-10-19T07:43:15;34.47;;;30.87;;
8632;SDS011;4354;49.832;10.746;2023-10-19T07:45:42;32.40;;;29.07;;
8632;SDS011;4354;49.832;10.746;2023-10-19T07:48:09;29.67;;;26.57;;
8632;SDS011;4354;49.832;10.746;2023-10-19T07:50:39;28.97;;;26.07;;
8632;SDS011;4354;49.832;10.746;2023-10-19T07:53:09;29.30;;;26.30;;
8632;SDS011;4354;49.832;10.746;2023-10-19T07:55:36;30.47;;;27.27;;
8632;SDS011;4354;49.832;10.746;2023-10-19T07:58:05;28.33;;;25.53;;
8632;SDS011;4354;49.832;10.746;2023-10-19T08:00:36;28.87;;;25.47;;
8632;SDS011;4354;49.832;10.746;2023-10-19T08:03:03;29.77;;;26.03;;
8632;SDS011;4354;49.832;10.746;2023-10-19T08:05:31;29.53;;;26.53;;
8632;SDS011;4354;49.832;10.746;2023-10-19T08:08:00;29.60;;;26.50;;
8632;SDS011;4354;49.832;10.746;2023-10-19T08:10:31;28.43;;;25.40;;
8632;SDS011;4354;49.832;10.746;2023-10-19T08:12:58;29.47;;;26.33;;
8632;SDS011;4354;49.832;10.746;2023-10-19T08:15:26;28.47;;;25.47;;
8632;SDS011;4354;49.832;10.746;2023-10-19T08:17:57;28.50;;;25.47;;
8632;SDS011;4354;49.832;10.746;2023-10-19T08:20:24;31.17;;;26.83;;
8632;SDS011;4354;49.832;10.746;2023-10-19T08:22:58;28.03;;;24.43;;
8632;SDS011;4354;49.832;10.746;2023-10-19T08:25:29;27.47;;;24.80;;
8632;SDS011;4354;49.832;10.746;2023-10-19T08:28:13;28.20;;;25.23;;
8632;SDS011;4354;49.832;10.746;2023-10-19T08:30:41;28.17;;;25.30;;
8632;SDS011;4354;49.832;10.746;2023-10-19T08:33:08;29.30;;;26.13;;
8632;SDS011;4354;49.832;10.746;2023-10-19T08:35:35;29.20;;;26.30;;
8632;SDS011;4354;49.832;10.746;2023-10-19T08:38:02;29.83;;;26.60;;
8632;SDS011;4354;49.832;10.746;2023-10-19T08:40:36;30.07;;;26.90;;
8632;SDS011;4354;49.832;10.746;2023-10-19T08:43:06;29.10;;;26.00;;
8632;SDS011;4354;49.832;10.746;2023-10-19T08:45:39;30.60;;;27.33;;
8632;SDS011;4354;49.832;10.746;2023-10-19T08:48:08;31.40;;;27.97;;
8632;SDS011;4354;49.832;10.746;2023-10-19T08:50:35;29.23;;;26.33;;
8632;SDS011;4354;49.832;10.746;2023-10-19T08:53:04;30.97;;;27.40;;
8632;SDS011;4354;49.832;10.746;2023-10-19T08:55:35;30.40;;;27.30;;
8632;SDS011;4354;49.832;10.746;2023-10-19T08:58:15;33.20;;;27.03;;
8632;SDS011;4354;49.832;10.746;2023-10-19T09:00:45;28.50;;;25.53;;
8632;SDS011;4354;49.832;10.746;2023-10-19T09:03:15;30.70;;;27.13;;
8632;SDS011;4354;49.832;10.746;2023-10-19T09:05:44;28.87;;;25.50;;
8632;SDS011;4354;49.832;10.746;2023-10-19T09:08:16;27.93;;;25.00;;
8632;SDS011;4354;49.832;10.746;2023-10-19T09:10:45;28.20;;;25.15;;
8632;SDS011;4354;49.832;10.746;2023-10-19T09:13:13;26.53;;;23.83;;
8632;SDS011;4354;49.832;10.746;2023-10-19T09:15:42;27.93;;;25.13;;
8632;SDS011;4354;49.832;10.746;2023-10-19T09:20:46;27.37;;;24.63;;
8632;SDS011;4354;49.832;10.746;2023-10-19T09:23:21;26.83;;;23.97;;
8632;SDS011;4354;49.832;10.746;2023-10-19T09:25:55;26.83;;;24.10;;
8632;SDS011;4354;49.832;10.746;2023-10-19T09:28:24;26.30;;;23.70;;
8632;SDS011;4354;49.832;10.746;2023-10-19T09:30:51;27.03;;;24.23;;
8632;SDS011;4354;49.832;10.746;2023-10-19T09:33:20;26.48;;;23.85;;
8632;SDS011;4354;49.832;10.746;2023-10-19T09:35:48;27.55;;;24.65;;
8632;SDS011;4354;49.832;10.746;2023-10-19T09:38:19;26.35;;;23.52;;
8632;SDS011;4354;49.832;10.746;2023-10-19T09:40:51;25.33;;;22.67;;
8632;SDS011;4354;49.832;10.746;2023-10-19T09:43:24;25.15;;;22.50;;
8632;SDS011;4354;49.832;10.746;2023-10-19T09:46:05;23.00;;;20.75;;
8632;SDS011;4354;49.832;10.746;2023-10-19T09:48:37;22.40;;;20.15;;
8632;SDS011;4354;49.832;10.746;2023-10-19T09:51:08;20.23;;;17.80;;
8632;SDS011;4354;49.832;10.746;2023-10-19T09:53:43;19.30;;;17.30;;
8632;SDS011;4354;49.832;10.746;2023-10-19T09:56:20;19.63;;;17.70;;
8632;SDS011;4354;49.832;10.746;2023-10-19T09:58:57;18.98;;;17.25;;
8632;SDS011;4354;49.832;10.746;2023-10-19T10:02:32;19.88;;;17.95;;
8632;SDS011;4354;49.832;10.746;2023-10-19T10:04:30;19.50;;;17.63;;
8632;SDS011;4354;49.832;10.746;2023-10-19T10:06:58;19.08;;;17.20;;
8632;SDS011;4354;49.832;10.746;2023-10-19T10:09:26;18.95;;;17.20;;
8632;SDS011;4354;49.832;10.746;2023-10-19T10:11:53;19.52;;;17.52;;
8632;SDS011;4354;49.832;10.746;2023-10-19T10:14:23;19.33;;;17.55;;
8632;SDS011;4354;49.832;10.746;2023-10-19T10:17:00;18.95;;;17.25;;
8632;SDS011;4354;49.832;10.746;2023-10-19T10:19:28;19.77;;;17.80;;
8632;SDS011;4354;49.832;10.746;2023-10-19T10:24:47;21.38;;;19.38;;
8632;SDS011;4354;49.832;10.746;2023-10-19T10:27:19;24.25;;;21.67;;
8632;SDS011;4354;49.832;10.746;2023-10-19T10:29:55;19.92;;;18.02;;
8632;SDS011;4354;49.832;10.746;2023-10-19T10:32:43;20.52;;;18.63;;
8632;SDS011;4354;49.832;10.746;2023-10-19T10:38:05;26.73;;;23.92;;
8632;SDS011;4354;49.832;10.746;2023-10-19T10:40:46;19.73;;;17.90;;
8632;SDS011;4354;49.832;10.746;2023-10-19T10:43:15;18.80;;;16.92;;
8632;SDS011;4354;49.832;10.746;2023-10-19T10:45:43;19.35;;;17.58;;
8632;SDS011;4354;49.832;10.746;2023-10-19T10:48:13;19.92;;;18.17;;
8632;SDS011;4354;49.832;10.746;2023-10-19T10:50:41;19.50;;;17.73;;
8632;SDS011;4354;49.832;10.746;2023-10-19T10:53:10;20.42;;;18.40;;
8632;SDS011;4354;49.832;10.746;2023-10-19T10:55:41;23.13;;;20.92;;
8632;SDS011;4354;49.832;10.746;2023-10-19T10:58:09;21.15;;;19.08;;
8632;SDS011;4354;49.832;10.746;2023-10-19T11:00:43;21.45;;;19.35;;
8632;SDS011;4354;49.832;10.746;2023-10-19T11:03:13;20.75;;;18.65;;
8632;SDS011;4354;49.832;10.746;2023-10-19T11:05:41;19.85;;;18.02;;
8632;SDS011;4354;49.832;10.746;2023-10-19T11:08:12;21.55;;;19.30;;
8632;SDS011;4354;49.832;10.746;2023-10-19T11:10:41;20.90;;;19.08;;
8632;SDS011;4354;49.832;10.746;2023-10-19T11:13:09;24.27;;;21.13;;
8632;SDS011;4354;49.832;10.746;2023-10-19T11:15:38;20.90;;;18.58;;
8632;SDS011;4354;49.832;10.746;2023-10-19T11:18:05;20.35;;;18.45;;
8632;SDS011;4354;49.832;10.746;2023-10-19T11:20:34;21.45;;;19.17;;
8632;SDS011;4354;49.832;10.746;2023-10-19T11:23:01;19.90;;;17.80;;
8632;SDS011;4354;49.832;10.746;2023-10-19T11:25:29;19.67;;;17.88;;
8632;SDS011;4354;49.832;10.746;2023-10-19T11:27:59;17.98;;;16.23;;
8632;SDS011;4354;49.832;10.746;2023-10-19T11:30:28;19.80;;;17.80;;
8632;SDS011;4354;49.832;10.746;2023-10-19T11:32:58;19.52;;;17.63;;
8632;SDS011;4354;49.832;10.746;2023-10-19T11:35:28;19.73;;;17.92;;
8632;SDS011;4354;49.832;10.746;2023-10-19T11:37:57;19.83;;;18.13;;
8632;SDS011;4354;49.832;10.746;2023-10-19T11:40:25;21.38;;;19.35;;
8632;SDS011;4354;49.832;10.746;2023-10-19T11:42:53;19.88;;;18.08;;
8632;SDS011;4354;49.832;10.746;2023-10-19T11:45:23;20.98;;;18.83;;
8632;SDS011;4354;49.832;10.746;2023-10-19T11:47:50;19.33;;;17.38;;
8632;SDS011;4354;49.832;10.746;2023-10-19T11:50:17;20.17;;;18.38;;
8632;SDS011;4354;49.832;10.746;2023-10-19T11:52:45;20.27;;;18.08;;
8632;SDS011;4354;49.832;10.746;2023-10-19T11:55:13;19.10;;;17.35;;
8632;SDS011;4354;49.832;10.746;2023-10-19T11:57:43;19.05;;;17.25;;
8632;SDS011;4354;49.832;10.746;2023-10-19T12:00:11;19.10;;;16.75;;
8632;SDS011;4354;49.832;10.746;2023-10-19T12:03:00;19.13;;;17.10;;
8632;SDS011;4354;49.832;10.746;2023-10-19T12:05:27;18.10;;;16.50;;
8632;SDS011;4354;49.832;10.746;2023-10-19T12:07:54;20.35;;;16.52;;
8632;SDS011;4354;49.832;10.746;2023-10-19T12:10:23;18.75;;;16.95;;
8632;SDS011;4354;49.832;10.746;2023-10-19T12:13:02;19.60;;;16.45;;
8632;SDS011;4354;49.832;10.746;2023-10-19T12:15:30;18.65;;;16.63;;
8632;SDS011;4354;49.832;10.746;2023-10-19T12:17:56;17.63;;;15.82;;
8632;SDS011;4354;49.832;10.746;2023-10-19T12:20:24;17.33;;;15.68;;
8632;SDS011;4354;49.832;10.746;2023-10-19T12:22:51;18.30;;;16.33;;
8632;SDS011;4354;49.832;10.746;2023-10-19T12:25:20;18.80;;;17.08;;
8632;SDS011;4354;49.832;10.746;2023-10-19T12:28:08;19.90;;;17.83;;
8632;SDS011;4354;49.832;10.746;2023-10-19T12:30:40;19.30;;;16.60;;
8632;SDS011;4354;49.832;10.746;2023-10-19T12:33:08;18.88;;;16.98;;
8632;SDS011;4354;49.832;10.746;2023-10-19T12:35:42;18.77;;;16.98;;
8632;SDS011;4354;49.832;10.746;2023-10-19T12:38:18;18.65;;;16.90;;
8632;SDS011;4354;49.832;10.746;2023-10-19T12:40:47;20.75;;;18.08;;
8632;SDS011;4354;49.832;10.746;2023-10-19T12:43:15;19.38;;;17.60;;
8632;SDS011;4354;49.832;10.746;2023-10-19T12:45:45;18.95;;;16.98;;
8632;SDS011;4354;49.832;10.746;2023-10-19T12:48:17;19.23;;;17.23;;
8632;SDS011;4354;49.832;10.746;2023-10-19T12:50:44;19.80;;;17.90;;
8632;SDS011;4354;49.832;10.746;2023-10-19T12:53:10;20.88;;;18.83;;
8632;SDS011;4354;49.832;10.746;2023-10-19T12:55:37;23.02;;;18.50;;
8632;SDS011;4354;49.832;10.746;2023-10-19T12:58:05;21.02;;;18.95;;
8632;SDS011;4354;49.832;10.746;2023-10-19T13:00:41;22.08;;;19.77;;
8632;SDS011;4354;49.832;10.746;2023-10-19T13:03:12;21.13;;;18.95;;
8632;SDS011;4354;49.832;10.746;2023-10-19T13:05:42;21.92;;;19.75;;
8632;SDS011;4354;49.832;10.746;2023-10-19T13:08:13;21.70;;;19.38;;
8632;SDS011;4354;49.832;10.746;2023-10-19T13:10:41;23.35;;;21.02;;
8632;SDS011;4354;49.832;10.746;2023-10-19T13:13:10;23.58;;;20.60;;
8632;SDS011;4354;49.832;10.746;2023-10-19T13:15:39;21.42;;;19.33;;
8632;SDS011;4354;49.832;10.746;2023-10-19T13:18:08;22.35;;;19.75;;
8632;SDS011;4354;49.832;10.746;2023-10-19T13:20:51;22.17;;;19.20;;
8632;SDS011;4354;49.832;10.746;2023-10-19T13:23:20;20.90;;;18.90;;
8632;SDS011;4354;49.832;10.746;2023-10-19T13:25:50;21.20;;;19.00;;
8632;SDS011;4354;49.832;10.746;2023-10-19T13:28:20;21.02;;;18.80;;
8632;SDS011;4354;49.832;10.746;2023-10-19T13:30:49;21.15;;;19.00;;
8632;SDS011;4354;49.832;10.746;2023-10-19T13:33:17;22.17;;;19.80;;
8632;SDS011;4354;49.832;10.746;2023-10-19T13:35:45;23.38;;;21.05;;
8632;SDS011;4354;49.832;10.746;2023-10-19T13:38:12;23.92;;;21.17;;
8632;SDS011;4354;49.832;10.746;2023-10-19T13:40:41;24.77;;;20.40;;
8632;SDS011;4354;49.832;10.746;2023-10-19T13:43:09;20.67;;;18.67;;
8632;SDS011;4354;49.832;10.746;2023-10-19T13:45:40;21.92;;;19.05;;
8632;SDS011;4354;49.832;10.746;2023-10-19T13:48:09;24.45;;;18.77;;
8632;SDS011;4354;49.832;10.746;2023-10-19T13:50:45;21.40;;;19.20;;
8632;SDS011;4354;49.832;10.746;2023-10-19T13:53:19;21.95;;;19.65;;
8632;SDS011;4354;49.832;10.746;2023-10-19T13:55:46;20.77;;;18.83;;
8632;SDS011;4354;49.832;10.746;2023-10-19T13:58:14;21.58;;;17.77;;
8632;SDS011;4354;49.832;10.746;2023-10-19T14:00:41;22.55;;;18.38;;
8632;SDS011;4354;49.832;10.746;2023-10-19T14:03:13;19.27;;;17.35;;
8632;SDS011;4354;49.832;10.746;2023-10-19T14:05:41;20.30;;;18.25;;
8632;SDS011;4354;49.832;10.746;2023-10-19T14:08:09;21.60;;;19.25;;
8632;SDS011;4354;49.832;10.746;2023-10-19T14:10:37;21.48;;;18.95;;
8632;SDS011;4354;49.832;10.746;2023-10-19T14:13:08;23.73;;;21.25;;
8632;SDS011;4354;49.832;10.746;2023-10-19T14:15:38;22.58;;;20.17;;
8632;SDS011;4354;49.832;10.746;2023-10-19T14:18:05;30.02;;;26.80;;
8632;SDS011;4354;49.832;10.746;2023-10-19T14:20:32;28.40;;;25.60;;
8632;SDS011;4354;49.832;10.746;2023-10-19T14:23:01;28.00;;;25.10;;
8632;SDS011;4354;49.832;10.746;2023-10-19T14:25:31;25.67;;;23.08;;
8632;SDS011;4354;49.832;10.746;2023-10-19T14:28:02;29.10;;;25.92;;
8632;SDS011;4354;49.832;10.746;2023-10-19T14:30:33;25.38;;;22.75;;
8632;SDS011;4354;49.832;10.746;2023-10-19T14:33:00;29.58;;;26.75;;
8632;SDS011;4354;49.832;10.746;2023-10-19T14:35:27;31.25;;;26.45;;
8632;SDS011;4354;49.832;10.746;2023-10-19T14:37:55;35.13;;;31.92;;
8632;SDS011;4354;49.832;10.746;2023-10-19T14:40:24;26.92;;;23.90;;
8632;SDS011;4354;49.832;10.746;2023-10-19T14:42:53;30.88;;;27.73;;
8632;SDS011;4354;49.832;10.746;2023-10-19T14:45:21;25.23;;;22.13;;
8632;SDS011;4354;49.832;10.746;2023-10-19T14:47:53;24.67;;;22.30;;
8632;SDS011;4354;49.832;10.746;2023-10-19T14:50:30;25.83;;;22.42;;
8632;SDS011;4354;49.832;10.746;2023-10-19T14:52:57;23.33;;;20.83;;
8632;SDS011;4354;49.832;10.746;2023-10-19T14:55:24;22.63;;;20.27;;
8632;SDS011;4354;49.832;10.746;2023-10-19T14:57:52;22.50;;;19.95;;
8632;SDS011;4354;49.832;10.746;2023-10-19T15:00:20;22.23;;;19.83;;